createdAt,value
2022-12-01T00:01:26.019Z,11.90
2022-12-01T00:06:47.814Z,11.68
2022-12-01T00:12:09.770Z,11.73
2022-12-01T00:17:31.590Z,12.25
2022-12-01T00:22:53.897Z,11.50
2022-12-01T00:28:15.695Z,12.15
2022-12-01T00:33:38.033Z,12.20
2022-12-01T00:38:59.838Z,11.80
2022-12-01T00:44:21.622Z,14.23
2022-12-01T00:49:44.066Z,10.85
2022-12-01T00:55:06.342Z,11.90
2022-12-01T01:00:28.264Z,13.43
2022-12-01T01:05:50.173Z,11.73
2022-12-01T01:11:12.104Z,12.20
2022-12-01T01:16:34.596Z,12.18
2022-12-01T01:21:56.395Z,13.27
2022-12-01T01:27:18.223Z,12.80
2022-12-01T01:32:40.102Z,12.10
2022-12-01T01:38:01.892Z,14.02
2022-12-01T01:43:41.908Z,12.90
2022-12-01T01:49:09.683Z,11.43
2022-12-01T01:54:36.168Z,13.63
2022-12-01T02:05:26.631Z,14.05
2022-12-01T02:11:19.451Z,14.93
2022-12-01T02:17:00.421Z,14.13
2022-12-01T02:22:35.665Z,14.18
2022-12-01T02:28:06.374Z,14.52
2022-12-01T02:33:53.960Z,13.85
2022-12-01T02:39:33.927Z,13.60
2022-12-01T02:44:57.450Z,13.70
2022-12-01T02:50:22.055Z,14.32
2022-12-01T02:55:48.558Z,14.77
2022-12-01T03:01:43.889Z,13.52
2022-12-01T03:07:14.654Z,14.00
2022-12-01T03:12:51.598Z,13.57
2022-12-01T03:18:43.699Z,13.07
2022-12-01T03:24:17.258Z,13.23
2022-12-01T03:29:43.647Z,13.45
2022-12-01T03:35:13.579Z,14.65
2022-12-01T03:40:39.047Z,13.55
2022-12-01T03:46:13.438Z,14.45
2022-12-01T03:51:56.185Z,13.90
2022-12-01T03:57:25.259Z,14.30
2022-12-01T04:02:47.171Z,14.77
2022-12-01T04:08:09.114Z,14.27
2022-12-01T04:13:30.921Z,14.88
2022-12-01T04:18:52.714Z,15.60
2022-12-01T04:24:15.531Z,15.15
2022-12-01T04:29:37.342Z,14.68
2022-12-01T04:34:59.115Z,14.85
2022-12-01T04:40:20.874Z,14.00
2022-12-01T04:45:42.678Z,16.13
2022-12-01T04:51:06.520Z,16.15
2022-12-01T04:56:28.618Z,14.75
2022-12-01T05:01:50.526Z,14.73
2022-12-01T05:07:12.374Z,15.40
2022-12-01T05:12:34.134Z,14.73
2022-12-01T05:17:55.909Z,14.07
2022-12-01T05:23:17.678Z,13.98
2022-12-01T05:28:40.075Z,13.13
2022-12-01T05:34:01.909Z,13.25
2022-12-01T05:39:23.686Z,13.57
2022-12-01T05:44:45.478Z,13.05
2022-12-01T05:50:08.265Z,13.55
2022-12-01T05:55:30.100Z,14.13
2022-12-01T06:00:51.882Z,14.80
2022-12-01T06:06:13.864Z,12.48
2022-12-01T06:11:35.861Z,12.68
2022-12-01T06:16:57.680Z,12.30
2022-12-01T06:22:19.483Z,13.43
2022-12-01T06:27:41.276Z,12.52
2022-12-01T06:33:03.109Z,12.85
2022-12-01T06:38:24.970Z,13.98
2022-12-01T06:43:46.753Z,12.93
2022-12-01T06:49:12.637Z,12.85
2022-12-01T06:54:34.417Z,12.07
2022-12-01T06:59:56.386Z,11.82
2022-12-01T07:05:18.555Z,11.80
2022-12-01T07:10:40.335Z,12.40
2022-12-01T07:16:03.228Z,12.20
2022-12-01T07:21:25.311Z,12.13
2022-12-01T07:26:47.117Z,12.32
2022-12-01T07:32:08.873Z,14.07
2022-12-01T07:37:30.682Z,13.77
2022-12-01T07:42:52.469Z,15.35
2022-12-01T07:48:14.287Z,12.02
2022-12-01T07:53:36.651Z,14.27
2022-12-01T07:58:58.897Z,13.68
2022-12-01T08:04:20.678Z,14.60
2022-12-01T08:09:42.530Z,15.18
2022-12-01T08:15:04.656Z,13.15
2022-12-01T08:20:26.457Z,13.93
2022-12-01T08:25:48.217Z,13.35
2022-12-01T08:31:13.019Z,13.25
2022-12-01T08:36:35.783Z,13.30
2022-12-01T08:41:57.589Z,14.88
2022-12-01T08:47:19.430Z,14.05
2022-12-01T08:52:41.320Z,15.70
2022-12-01T08:58:03.148Z,16.27
2022-12-01T09:03:25.141Z,15.93
2022-12-01T09:08:47.599Z,16.42
2022-12-01T09:14:10.433Z,16.33
2022-12-01T09:19:32.404Z,15.20
2022-12-01T09:24:54.191Z,17.48
2022-12-01T09:30:16.519Z,17.65
2022-12-01T09:35:38.404Z,17.45
2022-12-01T09:41:04.430Z,16.40
2022-12-01T09:46:32.094Z,27.23
2022-12-01T09:51:55.015Z,17.92
2022-12-01T09:57:23.353Z,18.67
2022-12-01T10:02:57.159Z,18.65
2022-12-01T10:08:26.923Z,16.52
2022-12-01T10:13:49.123Z,17.85
2022-12-01T10:19:25.989Z,17.00
2022-12-01T10:25:01.605Z,17.15
2022-12-01T10:30:24.953Z,18.97
2022-12-01T10:35:46.806Z,19.25
2022-12-01T10:41:14.478Z,21.63
2022-12-01T10:46:53.873Z,21.58
2022-12-01T10:52:38.249Z,21.15
2022-12-01T10:58:09.108Z,23.05
2022-12-01T11:03:34.893Z,25.80
2022-12-01T11:09:01.038Z,24.00
2022-12-01T11:14:30.492Z,25.80
2022-12-01T11:19:52.832Z,24.90
2022-12-01T11:25:21.996Z,25.30
2022-12-01T11:30:43.910Z,23.83
2022-12-01T11:36:11.737Z,23.63
2022-12-01T11:41:39.653Z,21.33
2022-12-01T11:47:23.170Z,22.00
2022-12-01T11:52:47.181Z,22.83
2022-12-01T11:58:09.230Z,21.73
2022-12-01T12:03:46.390Z,25.70
2022-12-01T12:09:27.162Z,24.20
2022-12-01T12:15:19.902Z,19.60
2022-12-01T12:20:56.060Z,22.90
2022-12-01T12:26:25.331Z,23.15
2022-12-01T12:31:56.207Z,24.95
2022-12-01T12:37:23.050Z,23.98
2022-12-01T12:43:02.706Z,20.77
2022-12-01T12:48:57.346Z,18.67
2022-12-01T12:54:36.675Z,14.05
2022-12-01T13:00:15.372Z,15.88
2022-12-01T13:05:55.609Z,13.73
2022-12-01T13:11:23.914Z,13.65
2022-12-01T13:16:49.306Z,10.40
2022-12-01T13:22:13.327Z,10.55
2022-12-01T13:27:40.892Z,10.88
2022-12-01T13:33:05.092Z,11.60
2022-12-01T13:38:34.213Z,10.57
2022-12-01T13:43:55.955Z,9.75
2022-12-01T13:49:43.532Z,8.25
2022-12-01T13:55:08.313Z,8.75
2022-12-01T14:00:32.897Z,9.30
2022-12-01T14:06:05.484Z,9.23
2022-12-01T14:11:29.743Z,10.02
2022-12-01T14:16:54.422Z,10.50
2022-12-01T14:22:39.465Z,10.05
2022-12-01T14:28:03.330Z,14.38
2022-12-01T14:38:47.242Z,8.70
2022-12-01T14:44:30.620Z,10.18
2022-12-01T14:50:03.123Z,10.30
2022-12-01T14:55:40.386Z,10.52
2022-12-01T15:01:11.761Z,9.32
2022-12-01T15:06:35.554Z,9.57
2022-12-01T15:12:03.073Z,10.15
2022-12-01T15:17:32.938Z,8.75
2022-12-01T15:22:55.838Z,9.43
2022-12-01T15:28:29.009Z,11.15
2022-12-01T15:33:53.371Z,11.27
2022-12-01T15:39:36.463Z,12.40
2022-12-01T15:45:00.995Z,11.70
2022-12-01T15:50:46.007Z,12.75
2022-12-01T15:56:10.322Z,11.23
2022-12-01T16:01:32.512Z,15.00
2022-12-01T16:07:03.214Z,13.85
2022-12-01T16:12:27.711Z,15.95
2022-12-01T16:17:51.435Z,15.40
2022-12-01T16:23:23.649Z,16.00
2022-12-01T16:28:45.749Z,15.25
2022-12-01T16:34:44.089Z,17.48
2022-12-01T16:39:57.948Z,16.80
2022-12-01T16:45:20.426Z,18.00
2022-12-01T16:50:42.229Z,17.10
2022-12-01T16:56:04.178Z,17.27
2022-12-01T17:01:26.001Z,15.43
2022-12-01T17:06:47.930Z,15.43
2022-12-01T17:12:09.697Z,17.50
2022-12-01T17:17:31.485Z,18.27
2022-12-01T17:22:53.322Z,16.88
2022-12-01T17:28:15.180Z,17.38
2022-12-01T17:33:37.000Z,16.48
2022-12-01T17:38:58.909Z,16.45
2022-12-01T17:44:21.083Z,16.40
2022-12-01T17:49:42.854Z,18.50
2022-12-01T17:55:04.974Z,19.88
2022-12-01T18:00:26.800Z,19.92
2022-12-01T18:05:56.279Z,18.83
2022-12-01T18:11:18.084Z,18.75
2022-12-01T18:16:39.878Z,19.50
2022-12-01T18:22:01.644Z,20.83
2022-12-01T18:27:23.523Z,20.38
2022-12-01T18:32:45.341Z,20.55
2022-12-01T18:38:07.145Z,20.52
2022-12-01T18:43:31.169Z,17.20
2022-12-01T18:48:55.731Z,19.02
2022-12-01T18:54:17.542Z,18.80
2022-12-01T18:59:39.307Z,19.70
2022-12-01T19:05:01.097Z,18.60
2022-12-01T19:10:23.441Z,23.50
2022-12-01T19:15:45.266Z,20.60
2022-12-01T19:21:09.430Z,19.15
2022-12-01T19:26:31.255Z,21.98
2022-12-01T19:31:53.169Z,23.58
2022-12-01T19:37:15.042Z,23.30
2022-12-01T19:42:36.803Z,24.25
2022-12-01T19:47:58.603Z,22.60
2022-12-01T19:53:20.370Z,23.52
2022-12-01T19:58:42.217Z,23.83
2022-12-01T20:04:05.358Z,21.48
2022-12-01T20:09:27.132Z,23.58
2022-12-01T20:14:49.380Z,24.33
2022-12-01T20:20:12.064Z,23.48
2022-12-01T20:25:34.200Z,24.63
2022-12-01T20:30:56.243Z,23.92
2022-12-01T20:36:18.421Z,20.15
2022-12-01T20:41:40.554Z,24.15
2022-12-01T20:47:02.420Z,20.45
2022-12-01T20:52:24.215Z,22.75
2022-12-01T20:57:46.343Z,23.25
2022-12-01T21:03:08.222Z,19.40
2022-12-01T21:08:30.088Z,20.48
2022-12-01T21:13:51.874Z,23.08
2022-12-01T21:19:21.074Z,21.85
2022-12-01T21:24:44.218Z,21.02
2022-12-01T21:30:15.773Z,22.48
2022-12-01T21:35:37.527Z,21.83
2022-12-01T21:40:59.412Z,22.35
2022-12-01T21:46:21.418Z,20.70
2022-12-01T21:51:43.730Z,21.40
2022-12-01T21:57:24.627Z,22.20
2022-12-01T22:02:51.911Z,20.15
2022-12-01T22:08:13.742Z,19.38
2022-12-01T22:13:44.753Z,21.15
2022-12-01T22:19:15.378Z,22.25
2022-12-01T22:24:46.673Z,22.02
2022-12-01T22:30:08.424Z,24.70
2022-12-01T22:35:38.909Z,21.88
2022-12-01T22:41:09.197Z,21.15
2022-12-01T22:46:38.017Z,21.25
2022-12-01T22:52:14.115Z,20.00
2022-12-01T22:57:35.964Z,19.83
2022-12-01T23:02:58.935Z,19.85
2022-12-01T23:08:22.619Z,19.75
2022-12-01T23:13:44.452Z,18.75
2022-12-01T23:19:06.237Z,19.95
2022-12-01T23:24:32.406Z,20.02
2022-12-01T23:29:55.655Z,20.75
2022-12-01T23:35:18.507Z,19.70
2022-12-01T23:40:40.319Z,16.92
2022-12-01T23:46:11.783Z,13.73
2022-12-01T23:51:47.297Z,14.52
2022-12-01T23:57:20.498Z,15.93
